sensor_id;sensor_type;location;lat;lon;timestamp;pressure;altitude;pressure_sealevel;temperature;humidity
4528;BME280;62320;51.520;6.818;2024-02-23T00:04:18;98438.84;;;6.87;100.00
4528;BME280;62320;51.520;6.818;2024-02-23T00:14:20;98469.91;;;6.77;100.00
4528;BME280;62320;51.520;6.818;2024-02-23T00:24:22;98477.81;;;6.66;100.00
4528;BME280;62320;51.520;6.818;2024-02-23T00:34:23;98493.50;;;6.53;100.00
4528;BME280;62320;51.520;6.818;2024-02-23T00:44:25;98513.25;;;6.47;100.00
4528;BME280;62320;51.520;6.818;2024-02-23T00:54:27;98533.16;;;6.36;100.00
4528;BME280;62320;51.520;6.818;2024-02-23T01:04:28;98541.50;;;6.47;100.00
4528;BME280;62320;51.520;6.818;2024-02-23T01:14:30;98568.09;;;6.43;100.00
4528;BME280;62320;51.520;6.818;2024-02-23T01:24:31;98577.66;;;6.37;100.00
4528;BME280;62320;51.520;6.818;2024-02-23T01:34:33;98590.56;;;6.32;100.00
4528;BME280;62320;51.520;6.818;2024-02-23T01:44:35;98605.03;;;6.36;100.00
4528;BME280;62320;51.520;6.818;2024-02-23T01:54:37;98598.38;;;6.26;100.00
4528;BME280;62320;51.520;6.818;2024-02-23T02:04:38;98612.91;;;6.26;100.00
4528;BME280;62320;51.520;6.818;2024-02-23T02:14:40;98610.47;;;6.20;100.00
4528;BME280;62320;51.520;6.818;2024-02-23T02:24:41;98615.53;;;6.23;100.00
4528;BME280;62320;51.520;6.818;2024-02-23T02:34:45;98634.22;;;6.31;100.00
4528;BME280;62320;51.520;6.818;2024-02-23T02:44:46;98653.94;;;6.27;100.00
4528;BME280;62320;51.520;6.818;2024-02-23T02:54:48;98643.00;;;6.16;100.00
4528;BME280;62320;51.520;6.818;2024-02-23T03:04:50;98656.88;;;6.06;100.00
4528;BME280;62320;51.520;6.818;2024-02-23T03:14:52;98668.06;;;6.01;100.00
4528;BME280;62320;51.520;6.818;2024-02-23T03:24:53;98669.13;;;5.86;100.00
4528;BME280;62320;51.520;6.818;2024-02-23T03:34:55;98689.63;;;5.86;100.00
4528;BME280;62320;51.520;6.818;2024-02-23T03:44:56;98688.75;;;5.89;100.00
4528;BME280;62320;51.520;6.818;2024-02-23T03:54:58;98698.22;;;5.84;100.00
4528;BME280;62320;51.520;6.818;2024-02-23T04:04:59;98698.22;;;5.82;100.00
4528;BME280;62320;51.520;6.818;2024-02-23T04:15:00;98720.28;;;5.95;100.00
4528;BME280;62320;51.520;6.818;2024-02-23T04:25:02;98709.25;;;5.90;100.00
4528;BME280;62320;51.520;6.818;2024-02-23T04:35:04;98718.63;;;5.91;100.00
4528;BME280;62320;51.520;6.818;2024-02-23T04:45:06;98738.19;;;5.98;100.00
4528;BME280;62320;51.520;6.818;2024-02-23T04:55:08;98746.78;;;5.97;100.00
4528;BME280;62320;51.520;6.818;2024-02-23T05:05:09;98753.53;;;6.03;100.00
4528;BME280;62320;51.520;6.818;2024-02-23T05:15:11;98755.25;;;6.01;100.00
4528;BME280;62320;51.520;6.818;2024-02-23T05:25:12;98761.97;;;6.09;100.00
4528;BME280;62320;51.520;6.818;2024-02-23T05:35:14;98772.31;;;6.05;100.00
4528;BME280;62320;51.520;6.818;2024-02-23T05:45:16;98764.72;;;5.99;100.00
4528;BME280;62320;51.520;6.818;2024-02-23T05:55:17;98762.25;;;5.90;100.00
4528;BME280;62320;51.520;6.818;2024-02-23T06:05:18;98778.44;;;5.93;100.00
4528;BME280;62320;51.520;6.818;2024-02-23T06:15:20;98777.66;;;5.90;100.00
4528;BME280;62320;51.520;6.818;2024-02-23T06:25:22;98760.56;;;5.89;100.00
4528;BME280;62320;51.520;6.818;2024-02-23T06:35:23;98757.88;;;5.99;100.00
4528;BME280;62320;51.520;6.818;2024-02-23T06:45:25;98735.75;;;5.89;100.00
4528;BME280;62320;51.520;6.818;2024-02-23T06:55:27;98743.34;;;5.98;100.00
4528;BME280;62320;51.520;6.818;2024-02-23T07:05:28;98750.13;;;6.01;100.00
4528;BME280;62320;51.520;6.818;2024-02-23T07:15:30;98751.66;;;6.14;100.00
4528;BME280;62320;51.520;6.818;2024-02-23T07:25:33;98753.09;;;6.33;100.00
4528;BME280;62320;51.520;6.818;2024-02-23T07:35:35;98739.31;;;6.37;100.00
4528;BME280;62320;51.520;6.818;2024-02-23T07:45:37;98740.81;;;6.50;100.00
4528;BME280;62320;51.520;6.818;2024-02-23T07:55:38;98734.63;;;6.62;100.00
4528;BME280;62320;51.520;6.818;2024-02-23T08:05:40;98740.50;;;6.68;100.00
4528;BME280;62320;51.520;6.818;2024-02-23T08:15:41;98744.75;;;6.72;100.00
4528;BME280;62320;51.520;6.818;2024-02-23T08:25:43;98753.28;;;6.73;100.00
4528;BME280;62320;51.520;6.818;2024-02-23T08:35:44;98745.44;;;6.80;100.00
4528;BME280;62320;51.520;6.818;2024-02-23T08:45:46;98742.84;;;6.83;100.00
4528;BME280;62320;51.520;6.818;2024-02-23T08:55:47;98739.22;;;6.95;100.00
4528;BME280;62320;51.520;6.818;2024-02-23T09:05:49;98763.88;;;7.03;100.00
4528;BME280;62320;51.520;6.818;2024-02-23T09:15:51;98754.13;;;7.22;100.00
4528;BME280;62320;51.520;6.818;2024-02-23T09:25:53;98747.09;;;7.30;100.00
4528;BME280;62320;51.520;6.818;2024-02-23T09:35:54;98755.41;;;7.44;100.00
4528;BME280;62320;51.520;6.818;2024-02-23T09:45:56;98780.13;;;7.51;100.00
4528;BME280;62320;51.520;6.818;2024-02-23T09:55:59;98766.34;;;7.54;100.00
4528;BME280;62320;51.520;6.818;2024-02-23T10:06:01;98782.31;;;7.69;100.00
4528;BME280;62320;51.520;6.818;2024-02-23T10:16:03;98770.03;;;7.83;100.00
4528;BME280;62320;51.520;6.818;2024-02-23T10:26:15;98787.81;;;7.94;100.00
4528;BME280;62320;51.520;6.818;2024-02-23T10:36:26;98792.00;;;7.98;100.00
4528;BME280;62320;51.520;6.818;2024-02-23T10:46:34;98792.81;;;8.00;100.00
4528;BME280;62320;51.520;6.818;2024-02-23T10:56:35;98805.59;;;8.05;100.00
4528;BME280;62320;51.520;6.818;2024-02-23T11:06:37;98820.97;;;8.08;100.00
4528;BME280;62320;51.520;6.818;2024-02-23T11:16:39;98803.81;;;8.08;100.00
4528;BME280;62320;51.520;6.818;2024-02-23T11:26:43;98793.41;;;8.13;100.00
4528;BME280;62320;51.520;6.818;2024-02-23T11:36:50;98797.56;;;8.18;100.00
4528;BME280;62320;51.520;6.818;2024-02-23T11:46:52;98818.97;;;8.22;100.00
4528;BME280;62320;51.520;6.818;2024-02-23T11:56:53;98812.09;;;8.21;100.00
4528;BME280;62320;51.520;6.818;2024-02-23T12:06:55;98799.97;;;8.27;100.00
4528;BME280;62320;51.520;6.818;2024-02-23T12:16:57;98804.09;;;8.36;100.00
4528;BME280;62320;51.520;6.818;2024-02-23T12:26:59;98806.25;;;8.52;100.00
4528;BME280;62320;51.520;6.818;2024-02-23T12:37:02;98806.03;;;8.63;100.00
4528;BME280;62320;51.520;6.818;2024-02-23T12:47:04;98808.38;;;8.72;100.00
4528;BME280;62320;51.520;6.818;2024-02-23T12:57:06;98800.44;;;8.81;100.00
4528;BME280;62320;51.520;6.818;2024-02-23T13:07:07;98818.44;;;8.83;100.00
4528;BME280;62320;51.520;6.818;2024-02-23T13:17:09;98825.31;;;8.82;100.00
4528;BME280;62320;51.520;6.818;2024-02-23T13:27:10;98826.97;;;8.85;100.00
4528;BME280;62320;51.520;6.818;2024-02-23T13:37:12;98834.66;;;8.86;100.00
4528;BME280;62320;51.520;6.818;2024-02-23T13:47:13;98841.56;;;8.86;100.00
4528;BME280;62320;51.520;6.818;2024-02-23T13:57:14;98828.69;;;8.84;100.00
4528;BME280;62320;51.520;6.818;2024-02-23T14:07:16;98835.72;;;8.78;100.00
4528;BME280;62320;51.520;6.818;2024-02-23T14:17:18;98836.50;;;8.81;100.00
4528;BME280;62320;51.520;6.818;2024-02-23T14:27:20;98843.28;;;8.85;100.00
4528;BME280;62320;51.520;6.818;2024-02-23T14:37:21;98839.75;;;8.89;100.00
4528;BME280;62320;51.520;6.818;2024-02-23T14:47:22;98840.50;;;8.93;100.00
4528;BME280;62320;51.520;6.818;2024-02-23T14:57:35;98841.13;;;9.04;100.00
4528;BME280;62320;51.520;6.818;2024-02-23T15:07:37;98847.91;;;9.06;100.00
4528;BME280;62320;51.520;6.818;2024-02-23T15:17:39;98854.72;;;9.09;100.00
4528;BME280;62320;51.520;6.818;2024-02-23T15:27:43;98873.88;;;8.99;100.00
4528;BME280;62320;51.520;6.818;2024-02-23T15:37:44;98871.69;;;8.82;100.00
4528;BME280;62320;51.520;6.818;2024-02-23T15:47:46;98863.41;;;8.68;100.00
4528;BME280;62320;51.520;6.818;2024-02-23T15:57:48;98879.19;;;8.54;100.00
4528;BME280;62320;51.520;6.818;2024-02-23T16:07:49;98886.03;;;8.14;100.00
4528;BME280;62320;51.520;6.818;2024-02-23T16:17:51;98890.94;;;8.25;100.00
4528;BME280;62320;51.520;6.818;2024-02-23T16:27:53;98875.84;;;8.10;100.00
4528;BME280;62320;51.520;6.818;2024-02-23T16:37:55;98895.78;;;7.99;100.00
4528;BME280;62320;51.520;6.818;2024-02-23T16:47:56;98903.59;;;7.94;100.00
4528;BME280;62320;51.520;6.818;2024-02-23T16:57:59;98921.56;;;7.97;100.00
4528;BME280;62320;51.520;6.818;2024-02-23T17:08:00;98917.31;;;7.93;100.00
4528;BME280;62320;51.520;6.818;2024-02-23T17:18:03;98915.09;;;7.75;100.00
4528;BME280;62320;51.520;6.818;2024-02-23T17:28:05;98917.09;;;7.61;100.00
4528;BME280;62320;51.520;6.818;2024-02-23T17:38:06;98924.16;;;7.48;100.00
4528;BME280;62320;51.520;6.818;2024-02-23T17:48:08;98923.28;;;7.49;100.00
4528;BME280;62320;51.520;6.818;2024-02-23T17:58:10;98926.03;;;7.40;100.00
4528;BME280;62320;51.520;6.818;2024-02-23T18:08:20;98933.00;;;7.34;100.00
4528;BME280;62320;51.520;6.818;2024-02-23T18:18:23;98948.72;;;7.14;100.00
4528;BME280;62320;51.520;6.818;2024-02-23T18:28:25;98950.63;;;7.01;100.00
4528;BME280;62320;51.520;6.818;2024-02-23T18:38:27;98945.63;;;6.92;100.00
4528;BME280;62320;51.520;6.818;2024-02-23T18:48:29;98956.75;;;6.91;100.00
4528;BME280;62320;51.520;6.818;2024-02-23T18:58:31;98960.22;;;6.90;100.00
4528;BME280;62320;51.520;6.818;2024-02-23T19:08:33;98956.72;;;6.94;100.00
4528;BME280;62320;51.520;6.818;2024-02-23T19:18:35;98960.06;;;6.99;100.00
4528;BME280;62320;51.520;6.818;2024-02-23T19:28:37;98959.22;;;6.99;100.00
4528;BME280;62320;51.520;6.818;2024-02-23T19:38:38;98963.41;;;7.06;100.00
4528;BME280;62320;51.520;6.818;2024-02-23T19:48:40;98968.47;;;7.10;100.00
4528;BME280;62320;51.520;6.818;2024-02-23T19:58:42;98981.28;;;7.12;100.00
4528;BME280;62320;51.520;6.818;2024-02-23T20:08:43;98984.78;;;7.06;100.00
4528;BME280;62320;51.520;6.818;2024-02-23T20:18:45;98982.94;;;7.17;100.00
4528;BME280;62320;51.520;6.818;2024-02-23T20:28:46;98994.97;;;7.14;100.00
4528;BME280;62320;51.520;6.818;2024-02-23T20:38:48;98999.25;;;7.15;100.00
4528;BME280;62320;51.520;6.818;2024-02-23T20:48:49;99001.00;;;7.13;100.00
4528;BME280;62320;51.520;6.818;2024-02-23T20:58:51;99001.31;;;6.90;100.00
4528;BME280;62320;51.520;6.818;2024-02-23T21:08:52;99005.59;;;6.90;100.00
4528;BME280;62320;51.520;6.818;2024-02-23T21:18:54;99010.97;;;6.72;100.00
4528;BME280;62320;51.520;6.818;2024-02-23T21:28:55;99016.06;;;6.76;100.00
4528;BME280;62320;51.520;6.818;2024-02-23T21:38:57;99023.75;;;6.75;100.00
4528;BME280;62320;51.520;6.818;2024-02-23T21:48:58;99023.69;;;6.79;100.00
4528;BME280;62320;51.520;6.818;2024-02-23T21:59:03;99029.72;;;6.78;100.00
4528;BME280;62320;51.520;6.818;2024-02-23T22:09:05;99031.41;;;6.79;100.00
4528;BME280;62320;51.520;6.818;2024-02-23T22:19:06;99029.69;;;6.81;100.00
4528;BME280;62320;51.520;6.818;2024-02-23T22:29:08;99029.81;;;6.72;100.00
4528;BME280;62320;51.520;6.818;2024-02-23T22:39:09;99033.22;;;6.71;100.00
4528;BME280;62320;51.520;6.818;2024-02-23T22:49:11;99034.13;;;6.66;100.00
4528;BME280;62320;51.520;6.818;2024-02-23T22:59:12;99028.94;;;6.70;100.00
4528;BME280;62320;51.520;6.818;2024-02-23T23:09:15;99031.63;;;6.63;100.00
4528;BME280;62320;51.520;6.818;2024-02-23T23:19:16;99042.75;;;6.62;100.00
4528;BME280;62320;51.520;6.818;2024-02-23T23:29:20;99045.38;;;6.57;100.00
4528;BME280;62320;51.520;6.818;2024-02-23T23:39:23;99038.63;;;6.48;100.00
4528;BME280;62320;51.520;6.818;2024-02-23T23:49:25;99046.47;;;6.38;100.00
4528;BME280;62320;51.520;6.818;2024-02-23T23:59:26;99047.44;;;6.26;100.00
